Time;durP1;ratioP1;P1;durP2;ratioP2;P2;SDS_P1;SDS_P2;PMS_P1;PMS_P2;Temp;Humidity;BMP_temperature;BMP_pressure;BME280_temperature;BME280_humidity;BME280_pressure;Samples;Min_cycle;Max_cycle;Signal;HPM_P1;HPM_P2
2023/11/12 00:02:38;;;;;;;45.00;21.50;;;;;;;7.91;100.00;97566.44;136059;1273;22663;-72
2023/11/12 00:05:41;;;;;;;41.10;19.30;;;;;;;8.00;100.00;97571.16;136049;1273;22657;-72
2023/11/12 00:08:43;;;;;;;40.10;19.60;;;;;;;7.93;100.00;97574.27;136054;1273;25331;-72
2023/11/12 00:11:46;;;;;;;42.80;19.00;;;;;;;7.87;100.00;97576.14;136062;1273;22643;-72
2023/11/12 00:14:49;;;;;;;39.80;18.70;;;;;;;7.84;100.00;97578.58;136053;1273;24228;-72
2023/11/12 00:17:52;;;;;;;44.80;20.10;;;;;;;7.80;100.00;97581.50;136027;1273;24373;-72
2023/11/12 00:20:55;;;;;;;;;;;;;;;7.71;100.00;97582.05;136063;1273;22531;-72
2023/11/12 00:23:58;;;;;;;43.80;20.20;;;;;;;7.72;100.00;97586.18;136005;1273;22550;-72
2023/11/12 00:27:00;;;;;;;42.70;20.10;;;;;;;7.74;100.00;97590.93;136065;1273;22544;-72
2023/11/12 00:30:03;;;;;;;47.80;21.60;;;;;;;7.72;100.00;97592.11;136080;1273;22538;-73
2023/11/12 00:33:06;;;;;;;45.20;21.60;;;;;;;7.75;100.00;97595.77;136088;1273;22540;-72
2023/11/12 00:36:08;;;;;;;45.80;22.30;;;;;;;7.79;100.00;97599.48;136129;1273;22547;-72
2023/11/12 00:39:11;;;;;;;48.70;22.80;;;;;;;7.84;100.00;97602.25;136039;1273;22548;-72
2023/11/12 00:42:13;;;;;;;43.90;22.80;;;;;;;7.81;100.00;97605.56;136027;1273;22565;-73
2023/11/12 00:45:16;;;;;;;;;;;;;;;7.76;100.00;97608.54;136037;1273;22682;-72
2023/11/12 00:48:18;;;;;;;45.90;21.90;;;;;;;7.72;100.00;97609.48;136068;1273;22586;-72
2023/11/12 00:51:21;;;;;;;47.80;21.90;;;;;;;7.69;100.00;97609.39;136028;1252;23117;-72
2023/11/12 00:54:23;;;;;;;47.80;21.70;;;;;;;7.69;100.00;97607.45;136044;1254;22926;-72
2023/11/12 00:57:26;;;;;;;49.90;23.00;;;;;;;7.75;100.00;97605.48;136083;1252;24292;-72
2023/11/12 01:00:28;;;;;;;45.10;22.70;;;;;;;7.94;100.00;97607.34;136107;1273;22533;-72
2023/11/12 01:03:32;;;;;;;49.50;24.10;;;;;;;8.08;100.00;97607.40;136023;1273;22547;-72
2023/11/12 01:06:35;;;;;;;46.90;22.70;;;;;;;7.82;100.00;97610.42;136059;1273;22552;-73
2023/11/12 01:09:37;;;;;;;52.00;25.30;;;;;;;7.90;100.00;97606.73;136092;1273;22640;-72
2023/11/12 01:12:40;;;;;;;51.30;25.30;;;;;;;8.05;100.00;97615.62;136090;1273;22534;-72
2023/11/12 01:15:43;;;;;;;57.20;28.30;;;;;;;8.22;100.00;97614.62;136035;1273;22657;-72
2023/11/12 01:18:46;;;;;;;59.50;30.20;;;;;;;8.34;100.00;97610.23;136039;1273;22597;-72
2023/11/12 01:21:48;;;;;;;;;;;;;;;8.28;100.00;97616.04;136016;1273;22522;-72
2023/11/12 01:24:51;;;;;;;63.50;29.10;;;;;;;8.28;100.00;97620.39;136053;1273;22555;-72
2023/11/12 01:27:54;;;;;;;59.00;28.00;;;;;;;8.34;100.00;97614.79;136068;1273;24367;-72
2023/11/12 01:30:56;;;;;;;56.10;25.80;;;;;;;8.35;100.00;97611.22;136037;1273;25406;-72
2023/11/12 01:33:59;;;;;;;58.10;25.60;;;;;;;8.15;100.00;97616.48;136081;1273;25401;-72
2023/11/12 01:37:02;;;;;;;51.50;25.90;;;;;;;8.00;100.00;97620.68;136024;1273;24189;-73
2023/11/12 01:40:05;;;;;;;53.20;26.10;;;;;;;8.04;100.00;97624.06;136061;1273;25525;-72
2023/11/12 01:43:08;;;;;;;58.30;26.50;;;;;;;8.04;100.00;97622.13;136023;1273;22533;-72
2023/11/12 01:46:10;;;;;;;55.70;26.90;;;;;;;7.98;100.00;97628.10;136055;1273;22560;-72
2023/11/12 01:49:13;;;;;;;59.70;27.80;;;;;;;7.87;100.00;97627.31;136066;1273;25622;-72
2023/11/12 01:52:16;;;;;;;58.40;28.60;;;;;;;7.98;100.00;97630.02;136031;1270;24281;-72
2023/11/12 01:55:19;;;;;;;57.40;28.00;;;;;;;7.99;100.00;97626.80;136104;1273;22558;-72
2023/11/12 01:58:22;;;;;;;67.80;29.80;;;;;;;7.96;100.00;97623.86;136039;1273;22566;-72
2023/11/12 02:01:24;;;;;;;57.80;30.20;;;;;;;7.92;100.00;97626.96;135982;1273;22699;-72
2023/11/12 02:04:27;;;;;;;;;;;;;;;8.14;100.00;97632.73;136066;1273;22532;-72
2023/11/12 02:07:29;;;;;;;62.10;29.20;;;;;;;7.93;100.00;97632.60;136053;1273;22530;-72
2023/11/12 02:10:36;;;;;;;56.80;30.30;;;;;;;7.92;100.00;97634.23;136097;1273;22722;-72
2023/11/12 02:13:38;;;;;;;57.30;29.30;;;;;;;7.96;100.00;97634.49;136035;1273;22537;-72
2023/11/12 02:16:40;;;;;;;60.20;30.90;;;;;;;8.03;100.00;97633.48;136026;1273;24233;-72
2023/11/12 02:19:43;;;;;;;63.80;28.30;;;;;;;7.96;100.00;97632.92;135995;1254;24421;-72
2023/11/12 02:22:46;;;;;;;61.50;29.50;;;;;;;7.89;100.00;97637.57;135961;1273;24332;-72
2023/11/12 02:25:48;;;;;;;62.60;31.70;;;;;;;7.98;100.00;97633.17;135963;1273;25416;-72
2023/11/12 02:28:50;;;;;;;57.60;29.30;;;;;;;8.07;100.00;97636.55;136039;1273;26536;-72
2023/11/12 02:31:53;;;;;;;57.40;29.30;;;;;;;8.17;100.00;97640.71;136001;1273;22545;-72
2023/11/12 02:34:57;;;;;;;57.80;28.60;;;;;;;8.20;100.00;97638.05;136037;1273;22607;-73
2023/11/12 02:38:00;;;;;;;56.50;29.30;;;;;;;8.06;100.00;97638.16;136066;1272;25494;-72
2023/11/12 02:41:03;;;;;;;56.90;28.80;;;;;;;8.13;100.00;97640.80;135983;1273;25296;-72
2023/11/12 02:44:08;;;;;;;55.60;27.70;;;;;;;8.27;100.00;97640.31;136010;1273;22527;-72
2023/11/12 02:47:10;;;;;;;56.20;28.70;;;;;;;8.20;100.00;97642.39;135999;1273;24193;-72
2023/11/12 02:50:13;;;;;;;;;;;;;;;8.22;100.00;97647.34;136069;1272;22519;-72
2023/11/12 02:53:15;;;;;;;63.90;30.20;;;;;;;8.15;100.00;97650.40;136023;1273;22532;-72
2023/11/12 02:56:18;;;;;;;;;;;;;;;8.22;100.00;97647.47;136057;1273;22646;-72
2023/11/12 02:59:20;;;;;;;60.00;30.10;;;;;;;8.29;100.00;97647.54;135981;1273;22639;-72
2023/11/12 03:02:23;;;;;;;59.10;29.00;;;;;;;8.31;100.00;97648.13;136036;1273;22617;-72
2023/11/12 03:05:26;;;;;;;59.60;30.30;;;;;;;8.25;100.00;97648.18;136023;1273;22538;-72
2023/11/12 03:08:29;;;;;;;56.80;28.70;;;;;;;8.30;100.00;97645.73;136013;1273;22541;-72
2023/11/12 03:11:31;;;;;;;57.50;29.20;;;;;;;8.33;100.00;97645.55;136085;1273;22646;-72
2023/11/12 03:14:34;;;;;;;;;;;;;;;8.20;100.00;97642.56;136018;1273;22503;-72
2023/11/12 03:17:36;;;;;;;59.70;31.40;;;;;;;8.20;100.00;97642.41;136048;1273;23436;-72
2023/11/12 03:20:39;;;;;;;64.60;33.10;;;;;;;8.22;100.00;97645.77;135928;1273;22555;-72
2023/11/12 03:23:41;;;;;;;63.10;31.90;;;;;;;8.25;100.00;97649.89;135982;1273;22788;-72
2023/11/12 03:26:44;;;;;;;63.70;33.60;;;;;;;8.22;100.00;97648.75;135999;1273;25392;-72
2023/11/12 03:29:47;;;;;;;60.30;31.30;;;;;;;8.43;100.00;97647.42;136062;1273;22537;-72
2023/11/12 03:32:49;;;;;;;66.70;31.30;;;;;;;8.50;100.00;97646.77;135964;1273;22531;-72
2023/11/12 03:35:51;;;;;;;64.10;33.30;;;;;;;8.22;100.00;97648.54;136001;1273;22636;-72
2023/11/12 03:38:54;;;;;;;66.40;31.90;;;;;;;8.20;100.00;97651.85;136000;1273;22628;-72
2023/11/12 03:41:57;;;;;;;;;;;;;;;8.24;100.00;97651.55;135939;1273;22515;-72
2023/11/12 03:44:59;;;;;;;66.60;33.10;;;;;;;8.14;100.00;97653.10;136053;1273;22544;-72
2023/11/12 03:48:02;;;;;;;70.30;32.60;;;;;;;8.08;100.00;97647.98;135976;1273;22552;-72
2023/11/12 03:51:04;;;;;;;65.90;34.40;;;;;;;8.05;100.00;97649.02;136002;1273;22527;-72
2023/11/12 03:54:07;;;;;;;69.50;35.20;;;;;;;7.91;100.00;97653.46;135944;1273;22548;-72
2023/11/12 03:57:09;;;;;;;64.40;33.60;;;;;;;7.93;100.00;97654.72;135963;1273;22536;-72
2023/11/12 04:00:13;;;;;;;;;;;;;;;7.95;100.00;97657.36;135978;1273;22507;-72
2023/11/12 04:03:17;;;;;;;63.40;32.90;;;;;;;7.91;100.00;97664.41;135973;1255;22533;-72
2023/11/12 04:06:19;;;;;;;65.20;33.10;;;;;;;7.87;100.00;97662.95;135997;1273;22633;-72
2023/11/12 04:09:22;;;;;;;69.40;33.80;;;;;;;7.80;100.00;97663.60;135963;1273;25391;-72
2023/11/12 04:12:24;;;;;;;62.00;31.40;;;;;;;7.90;100.00;97663.25;135999;1273;25397;-74
2023/11/12 04:15:27;;;;;;;;;;;;;;;7.83;100.00;97663.44;136018;1273;23244;-72
2023/11/12 04:18:30;;;;;;;66.30;32.40;;;;;;;7.90;100.00;97665.19;135926;1273;22562;-72
2023/11/12 04:21:32;;;;;;;63.30;32.90;;;;;;;7.84;100.00;97668.07;135925;1273;22672;-72
2023/11/12 04:24:35;;;;;;;61.90;30.80;;;;;;;7.90;100.00;97670.61;135988;1273;25475;-72
2023/11/12 04:27:38;;;;;;;61.80;32.50;;;;;;;7.92;100.00;97670.45;135959;1273;22533;-72
2023/11/12 04:30:40;;;;;;;62.70;32.00;;;;;;;8.00;100.00;97677.78;135978;1273;22995;-72
2023/11/12 04:33:43;;;;;;;60.80;32.90;;;;;;;8.09;100.00;97678.16;135934;1273;22534;-72
2023/11/12 04:36:46;;;;;;;65.40;33.80;;;;;;;8.11;100.00;97683.05;135990;1273;22621;-72
2023/11/12 04:39:49;;;;;;;65.00;33.40;;;;;;;8.27;100.00;97687.23;135858;1273;25406;-72
2023/11/12 04:42:52;;;;;;;62.30;32.80;;;;;;;8.37;100.00;97691.74;135959;1273;23009;-71
2023/11/12 04:45:54;;;;;;;64.20;34.10;;;;;;;8.43;100.00;97693.93;135921;1273;22597;-72
2023/11/12 04:48:57;;;;;;;64.70;33.00;;;;;;;8.66;100.00;97700.02;135882;1273;25405;-72
2023/11/12 04:52:00;;;;;;;63.90;34.10;;;;;;;8.99;100.00;97696.83;135967;1273;22532;-72
2023/11/12 04:55:03;;;;;;;65.00;34.60;;;;;;;8.69;100.00;97701.88;135902;1255;22544;-72
2023/11/12 04:58:07;;;;;;;69.60;35.90;;;;;;;8.52;100.00;97706.23;135896;1273;22537;-72
2023/11/12 05:01:09;;;;;;;75.90;36.20;;;;;;;8.33;100.00;97714.69;135914;1273;22546;-72
2023/11/12 05:04:12;;;;;;;70.50;35.00;;;;;;;8.20;100.00;97718.31;135898;1273;22556;-73
2023/11/12 05:07:14;;;;;;;70.40;35.70;;;;;;;8.12;100.00;97714.86;135944;1274;22534;-73
2023/11/12 05:10:17;;;;;;;72.80;36.20;;;;;;;8.23;100.00;97721.80;135962;1262;22642;-72
2023/11/12 05:13:19;;;;;;;74.30;36.90;;;;;;;8.31;100.00;97719.19;135957;1255;22530;-72
2023/11/12 05:16:21;;;;;;;70.40;34.40;;;;;;;8.42;100.00;97720.67;135843;1262;22643;-73
2023/11/12 05:19:24;;;;;;;;;;;;;;;7.91;100.00;97730.56;136025;1273;22501;-72
2023/11/12 05:22:27;;;;;;;74.40;36.30;;;;;;;7.92;100.00;97733.52;135912;1273;22538;-74
2023/11/12 05:25:29;;;;;;;76.50;35.60;;;;;;;8.27;100.00;97739.09;135909;1273;22530;-72
2023/11/12 05:28:32;;;;;;;72.30;35.50;;;;;;;8.23;100.00;97740.08;135942;1273;22549;-72
2023/11/12 05:31:34;;;;;;;72.40;36.20;;;;;;;8.21;100.00;97747.54;135902;1273;22524;-71
2023/11/12 05:34:37;;;;;;;73.70;35.70;;;;;;;8.40;100.00;97743.08;135996;1273;22600;-72
2023/11/12 05:37:39;;;;;;;78.70;36.20;;;;;;;8.55;100.00;97749.09;135860;1273;22552;-72
2023/11/12 05:40:42;;;;;;;74.40;35.50;;;;;;;8.60;100.00;97742.94;135863;1273;22546;-72
2023/11/12 05:43:45;;;;;;;75.00;36.00;;;;;;;8.67;100.00;97749.45;135919;1273;22551;-72
2023/11/12 05:46:48;;;;;;;72.40;36.00;;;;;;;8.80;100.00;97752.52;135941;1274;22919;-72
2023/11/12 05:49:50;;;;;;;75.20;36.50;;;;;;;8.64;100.00;97753.83;135951;1273;26602;-72
2023/11/12 05:52:53;;;;;;;74.20;36.70;;;;;;;8.53;100.00;97757.05;135911;1273;22639;-72
2023/11/12 05:55:55;;;;;;;71.60;36.00;;;;;;;8.59;100.00;97759.23;135869;1273;25400;-72
2023/11/12 05:58:58;;;;;;;72.80;35.30;;;;;;;8.70;100.00;97758.34;135857;1273;22557;-72
2023/11/12 06:02:00;;;;;;;74.70;35.20;;;;;;;8.75;100.00;97764.89;135938;1273;22533;-72
2023/11/12 06:05:05;;;;;;;75.60;36.80;;;;;;;8.77;100.00;97770.17;135892;1273;22558;-72
2023/11/12 06:08:07;;;;;;;74.90;35.30;;;;;;;8.66;100.00;97772.35;135905;1273;22544;-72
2023/11/12 06:11:11;;;;;;;70.40;34.20;;;;;;;8.81;100.00;97772.02;135897;1273;22667;-72
2023/11/12 06:14:13;;;;;;;75.40;36.30;;;;;;;8.62;100.00;97782.88;135905;1273;22550;-74
2023/11/12 06:17:16;;;;;;;75.70;35.60;;;;;;;8.27;100.00;97785.46;135853;1273;22550;-74
2023/11/12 06:20:18;;;;;;;73.20;34.70;;;;;;;8.42;100.00;97793.66;135909;1273;23707;-72
2023/11/12 06:23:21;;;;;;;73.40;34.40;;;;;;;8.02;100.00;97794.64;135865;1273;22548;-72
2023/11/12 06:26:23;;;;;;;70.70;34.30;;;;;;;8.02;100.00;97793.37;135918;1273;22526;-72
2023/11/12 06:29:26;;;;;;;70.60;33.80;;;;;;;8.23;100.00;97797.72;135889;1273;22545;-72
2023/11/12 06:32:28;;;;;;;76.10;33.70;;;;;;;8.24;100.00;97798.16;135879;1273;22547;-72
2023/11/12 06:35:31;;;;;;;81.40;35.40;;;;;;;7.98;100.00;97808.11;135892;1273;22583;-72
2023/11/12 06:38:33;;;;;;;73.80;36.10;;;;;;;8.18;100.00;97806.09;135842;1273;22556;-71
2023/11/12 06:41:35;;;;;;;72.00;34.80;;;;;;;8.20;100.00;97805.05;135912;1273;22530;-72
2023/11/12 06:44:38;;;;;;;75.90;36.10;;;;;;;8.19;100.00;97807.42;135808;1273;22536;-72
2023/11/12 06:47:41;;;;;;;78.00;34.50;;;;;;;8.24;100.00;97811.59;135842;1273;22894;-72
2023/11/12 06:50:44;;;;;;;75.70;35.20;;;;;;;8.40;100.00;97813.47;135854;1273;22535;-72
2023/11/12 06:53:46;;;;;;;78.20;34.60;;;;;;;8.40;100.00;97811.07;135934;1273;22643;-72
2023/11/12 06:56:49;;;;;;;73.70;35.80;;;;;;;8.67;100.00;97819.30;135839;1273;22534;-72
2023/11/12 06:59:51;;;;;;;;;;;;;;;8.59;100.00;97819.86;135890;1273;22524;-72
2023/11/12 07:02:54;;;;;;;78.60;35.70;;;;;;;8.61;100.00;97824.66;135863;1272;22557;-72
2023/11/12 07:05:57;;;;;;;73.20;36.00;;;;;;;8.67;100.00;97825.06;135888;1273;22533;-72
2023/11/12 07:09:00;;;;;;;70.70;32.80;;;;;;;8.69;100.00;97828.60;135902;1273;22572;-72
2023/11/12 07:12:04;;;;;;;;;;;;;;;8.49;100.00;97828.76;135818;1273;22527;-72
2023/11/12 07:15:07;;;;;;;65.20;31.70;;;;;;;8.60;100.00;97825.23;135871;1273;24043;-72
2023/11/12 07:18:09;;;;;;;64.30;32.00;;;;;;;8.85;100.00;97835.36;135779;1273;22519;-71
2023/11/12 07:21:12;;;;;;;71.60;33.90;;;;;;;8.72;100.00;97834.33;135879;1273;25354;-72
2023/11/12 07:24:14;;;;;;;;;;;;;;;8.90;100.00;97836.35;135903;1273;22523;-72
2023/11/12 07:27:17;;;;;;;65.20;31.60;;;;;;;9.17;100.00;97839.21;135877;1273;22548;-72
2023/11/12 07:30:21;;;;;;;61.90;30.90;;;;;;;8.98;100.00;97842.48;135884;1273;24277;-72
2023/11/12 07:33:23;;;;;;;62.40;30.20;;;;;;;9.02;100.00;97845.13;135859;1273;22776;-72
2023/11/12 07:36:26;;;;;;;70.90;31.00;;;;;;;9.26;100.00;97843.30;135848;1259;22566;-72
2023/11/12 07:39:28;;;;;;;61.00;29.60;;;;;;;8.94;100.00;97842.88;135889;1273;22656;-72
2023/11/12 07:42:31;;;;;;;62.70;31.50;;;;;;;9.14;100.00;97839.25;135893;1273;22531;-72
2023/11/12 07:45:33;;;;;;;60.60;29.50;;;;;;;9.40;100.00;97839.17;135827;1256;22530;-72
2023/11/12 07:48:36;;;;;;;58.60;29.80;;;;;;;9.78;100.00;97836.57;135839;1273;22630;-72
2023/11/12 07:51:39;;;;;;;58.40;26.50;;;;;;;9.89;100.00;97843.10;135937;1273;22554;-72
2023/11/12 07:54:41;;;;;;;51.20;25.80;;;;;;;9.97;100.00;97847.92;135838;1273;24385;-72
2023/11/12 07:57:44;;;;;;;58.40;28.10;;;;;;;9.89;100.00;97853.58;135933;1273;25228;-72
2023/11/12 08:00:46;;;;;;;51.60;26.00;;;;;;;9.86;100.00;97855.39;135850;1273;22537;-72
2023/11/12 08:03:49;;;;;;;;;;;;;;;10.02;100.00;97853.52;135911;1262;22684;-72
2023/11/12 08:06:51;;;;;;;49.90;23.30;;;;;;;10.25;100.00;97856.34;135872;1273;22527;-72
2023/11/12 08:09:54;;;;;;;51.60;24.80;;;;;;;10.21;100.00;97854.05;135855;1273;22645;-72
2023/11/12 08:12:58;;;;;;;44.70;22.50;;;;;;;10.42;100.00;97854.55;135910;1273;22520;-72
2023/11/12 08:16:00;;;;;;;46.50;22.20;;;;;;;10.43;100.00;97854.00;135882;1273;22553;-72
2023/11/12 08:19:03;;;;;;;42.20;20.60;;;;;;;10.38;100.00;97855.41;135949;1273;22530;-72
2023/11/12 08:22:05;;;;;;;40.20;19.20;;;;;;;10.52;100.00;97856.98;135889;1273;22520;-72
2023/11/12 08:25:09;;;;;;;42.00;19.40;;;;;;;10.54;100.00;97861.54;135906;1273;25479;-72
2023/11/12 08:28:12;;;;;;;41.40;18.90;;;;;;;10.60;100.00;97863.15;135888;1273;22533;-72
2023/11/12 08:31:15;;;;;;;36.50;17.00;;;;;;;10.76;100.00;97866.20;135955;1256;22543;-72
2023/11/12 08:34:21;;;;;;;37.20;17.10;;;;;;;10.79;100.00;97867.34;135858;1273;22716;-72
2023/11/12 08:37:26;;;;;;;35.20;16.00;;;;;;;10.89;100.00;97874.09;135882;1256;22543;-72
2023/11/12 08:40:28;;;;;;;34.90;15.20;;;;;;;11.02;100.00;97877.30;135843;1273;22538;-72
2023/11/12 08:43:31;;;;;;;31.70;14.90;;;;;;;10.50;100.00;97879.79;135880;1274;22583;-72
2023/11/12 08:46:33;;;;;;;33.20;14.00;;;;;;;10.89;100.00;97888.27;135893;1273;22551;-72
2023/11/12 08:49:36;;;;;;;29.60;12.90;;;;;;;11.00;100.00;97888.45;135909;1273;22540;-72
2023/11/12 08:52:39;;;;;;;29.60;12.20;;;;;;;10.88;100.00;97890.10;135851;1273;22554;-72
2023/11/12 08:55:43;;;;;;;30.00;12.80;;;;;;;10.88;100.00;97895.00;135841;1273;22565;-72
2023/11/12 08:58:45;;;;;;;26.30;10.50;;;;;;;10.90;100.00;97895.52;135860;1274;22534;-72
2023/11/12 09:01:48;;;;;;;;;;;;;;;10.82;100.00;97899.64;135900;1273;22531;-72
2023/11/12 09:04:50;;;;;;;23.50;8.30;;;;;;;10.83;100.00;97903.08;135819;1273;22533;-72
2023/11/12 09:07:54;;;;;;;22.70;8.10;;;;;;;10.90;100.00;97905.14;135869;1274;22525;-72
2023/11/12 09:10:56;;;;;;;23.80;7.90;;;;;;;10.73;100.00;97909.56;135862;1274;22537;-72
2023/11/12 09:14:01;;;;;;;21.30;7.00;;;;;;;10.94;99.89;97913.42;135886;1274;22537;-72
2023/11/12 09:17:03;;;;;;;20.50;6.60;;;;;;;10.88;98.10;97921.27;135892;1273;22530;-72
2023/11/12 09:20:13;;;;;;;19.40;6.40;;;;;;;11.03;99.29;97912.58;135905;1274;22547;-72
2023/11/12 09:23:16;;;;;;;17.20;5.20;;;;;;;11.38;96.56;97914.39;135897;1274;22526;-72
2023/11/12 09:26:18;;;;;;;20.60;6.10;;;;;;;11.20;96.29;97917.51;135853;1274;22533;-72
2023/11/12 09:29:21;;;;;;;18.80;6.10;;;;;;;11.20;95.28;97924.66;135866;1274;22549;-72
2023/11/12 09:32:23;;;;;;;;;;;;;;;11.09;95.54;97927.14;135913;1274;25268;-72
2023/11/12 09:35:26;;;;;;;16.20;4.80;;;;;;;10.86;96.05;97931.33;135853;1273;22558;-72
2023/11/12 09:38:28;;;;;;;15.80;5.20;;;;;;;10.95;96.84;97928.55;135911;1274;25329;-72
2023/11/12 09:41:31;;;;;;;17.80;5.50;;;;;;;11.17;96.39;97926.36;135819;1272;22547;-72
2023/11/12 09:44:33;;;;;;;17.10;5.30;;;;;;;10.96;97.41;97933.01;135866;1274;25279;-72
2023/11/12 09:47:36;;;;;;;19.00;5.90;;;;;;;10.80;98.40;97935.15;135827;1260;22544;-72
2023/11/12 09:50:38;;;;;;;19.70;6.20;;;;;;;10.80;98.42;97933.70;135902;1274;22552;-72
2023/11/12 09:53:41;;;;;;;20.80;6.60;;;;;;;10.66;99.97;97929.38;135885;1273;22564;-72
2023/11/12 09:56:44;;;;;;;23.20;7.80;;;;;;;10.67;100.00;97936.48;135879;1273;22610;-73
2023/11/12 09:59:46;;;;;;;23.60;8.60;;;;;;;10.37;100.00;97945.50;135938;1274;22536;-72
2023/11/12 10:02:49;;;;;;;25.20;9.30;;;;;;;10.28;100.00;97944.88;135858;1274;22668;-72
2023/11/12 10:05:52;;;;;;;25.10;9.20;;;;;;;10.18;100.00;97944.92;135763;1274;155883;-72
2023/11/12 10:08:55;;;;;;;25.70;9.80;;;;;;;10.20;100.00;97947.05;135915;1256;22609;-72
2023/11/12 10:11:58;;;;;;;24.90;10.10;;;;;;;10.32;100.00;97944.63;135916;1274;22557;-72
2023/11/12 10:15:00;;;;;;;30.30;10.20;;;;;;;10.34;100.00;97947.96;135838;1274;22553;-72
2023/11/12 10:18:03;;;;;;;24.90;9.70;;;;;;;10.41;100.00;97946.23;135868;1273;24242;-72
2023/11/12 10:21:06;;;;;;;;;;;;;;;10.55;100.00;97947.94;135967;1270;22514;-72
2023/11/12 10:24:09;;;;;;;26.50;10.30;;;;;;;10.69;100.00;97945.71;135856;1274;22534;-72
2023/11/12 10:27:14;;;;;;;24.90;10.40;;;;;;;10.61;100.00;97947.00;135896;1274;22685;-72
2023/11/12 10:30:16;;;;;;;25.50;10.80;;;;;;;10.79;100.00;97946.06;135884;1273;24225;-72
2023/11/12 10:33:19;;;;;;;27.10;11.40;;;;;;;10.55;100.00;97946.91;135852;1274;22559;-72
2023/11/12 10:36:22;;;;;;;26.90;11.70;;;;;;;10.67;100.00;97950.29;135834;1256;22591;-71
2023/11/12 10:39:25;;;;;;;;;;;;;;;10.86;99.90;97952.14;135946;1274;22512;-71
2023/11/12 10:42:29;;;;;;;24.30;9.80;;;;;;;11.27;97.47;97951.63;135861;1255;22636;-71
2023/11/12 10:45:31;;;;;;;24.40;9.30;;;;;;;11.22;95.44;97951.19;135874;1273;22562;-72
2023/11/12 10:48:35;;;;;;;23.90;9.00;;;;;;;11.30;94.41;97952.80;135900;1274;24266;-71
2023/11/12 10:51:37;;;;;;;20.60;7.60;;;;;;;11.53;92.75;97951.57;135900;1273;22550;-72
2023/11/12 10:54:40;;;;;;;21.00;7.40;;;;;;;11.41;92.52;97949.52;135844;1274;22536;-71
2023/11/12 10:57:42;;;;;;;;;;;;;;;11.59;92.61;97943.73;135873;1273;22533;-71
2023/11/12 11:00:45;;;;;;;20.70;6.80;;;;;;;11.89;91.54;97942.39;135860;1273;25318;-71
2023/11/12 11:03:48;;;;;;;21.70;7.20;;;;;;;11.91;90.49;97947.19;135826;1273;25297;-71
2023/11/12 11:06:50;;;;;;;20.50;7.60;;;;;;;12.06;87.71;97943.83;135857;1273;24077;-71
2023/11/12 11:09:53;;;;;;;19.80;7.20;;;;;;;12.23;88.58;97946.89;135823;1273;26513;-71
2023/11/12 11:12:55;;;;;;;;;;;;;;;12.22;84.19;97954.16;135856;1273;22617;-72
2023/11/12 11:15:58;;;;;;;19.50;6.30;;;;;;;12.05;85.06;97957.10;135812;1273;25252;-72
2023/11/12 11:19:01;;;;;;;17.70;5.90;;;;;;;11.94;84.43;97956.58;135843;1273;24038;-71
2023/11/12 11:22:03;;;;;;;16.80;5.40;;;;;;;12.06;83.62;97962.29;135849;1256;22542;-71
2023/11/12 11:25:06;;;;;;;17.70;5.80;;;;;;;12.10;82.87;97960.20;135894;1273;22554;-71
2023/11/12 11:28:08;;;;;;;17.90;5.70;;;;;;;12.12;82.34;97964.39;135883;1273;22530;-71
2023/11/12 11:31:11;;;;;;;18.40;5.80;;;;;;;12.18;81.27;97964.99;135856;1273;22542;-72
2023/11/12 11:34:13;;;;;;;17.60;5.40;;;;;;;12.18;81.65;97966.58;135861;1273;22575;-71
2023/11/12 11:37:17;;;;;;;16.20;5.90;;;;;;;12.16;82.07;97971.94;135869;1273;22639;-71
2023/11/12 11:40:20;;;;;;;18.60;6.10;;;;;;;11.94;81.28;97973.73;135880;1273;25405;-71
2023/11/12 11:43:22;;;;;;;18.40;5.90;;;;;;;11.90;81.62;97971.09;135852;1273;22541;-72
2023/11/12 11:46:25;;;;;;;17.70;6.00;;;;;;;11.86;82.94;97965.09;135912;1273;22560;-71
2023/11/12 11:49:28;;;;;;;22.50;7.80;;;;;;;12.01;83.55;97960.75;135917;1273;22774;-72
2023/11/12 11:52:30;;;;;;;20.00;7.10;;;;;;;12.16;82.47;97961.81;135926;1273;25454;-72
2023/11/12 11:55:33;;;;;;;22.60;7.70;;;;;;;12.03;82.68;97965.80;135837;1273;23986;-72
2023/11/12 11:58:35;;;;;;;22.70;8.30;;;;;;;11.91;82.83;97972.40;135917;1273;23242;-71
2023/11/12 12:01:38;;;;;;;19.50;6.30;;;;;;;11.86;80.52;97980.98;135893;1273;22556;-71
2023/11/12 12:04:40;;;;;;;20.10;7.10;;;;;;;11.84;81.11;97982.52;135894;1273;22581;-71
2023/11/12 12:07:45;;;;;;;20.40;7.30;;;;;;;11.92;81.85;97974.41;135928;1273;22534;-72
2023/11/12 12:10:48;;;;;;;22.80;8.20;;;;;;;11.93;81.55;97973.45;135894;1273;22587;-72
2023/11/12 12:13:52;;;;;;;21.20;7.60;;;;;;;11.91;79.93;97978.66;135857;1273;22740;-71
2023/11/12 12:16:54;;;;;;;20.80;7.80;;;;;;;11.95;78.90;97975.19;135786;1273;22597;-71
2023/11/12 12:19:57;;;;;;;22.40;7.40;;;;;;;12.04;79.80;97971.21;135768;1273;22552;-71
2023/11/12 12:22:59;;;;;;;20.20;7.10;;;;;;;12.21;79.67;97967.35;135800;1273;22536;-71
2023/11/12 12:26:02;;;;;;;23.50;7.60;;;;;;;12.24;79.97;97969.42;135896;1251;22545;-72
2023/11/12 12:29:05;;;;;;;20.40;6.70;;;;;;;12.11;80.01;97967.64;135884;1273;22540;-72
2023/11/12 12:32:07;;;;;;;19.20;6.70;;;;;;;12.11;78.06;97966.41;135904;1273;25319;-72
2023/11/12 12:35:10;;;;;;;19.90;7.40;;;;;;;12.15;78.88;97963.79;135861;1273;22674;-72
2023/11/12 12:38:13;;;;;;;21.20;6.20;;;;;;;12.05;77.63;97971.97;135948;1258;22727;-72
2023/11/12 12:41:15;;;;;;;;;;;;;;;11.96;78.90;97975.32;135904;1273;22528;-72
2023/11/12 12:44:17;;;;;;;18.60;5.90;;;;;;;11.65;79.50;97978.46;135941;1273;22560;-71
2023/11/12 12:47:20;;;;;;;;;;;;;;;11.72;78.43;97980.17;135919;1273;22535;-72
2023/11/12 12:50:25;;;;;;;20.90;6.70;;;;;;;11.63;78.01;97987.72;135854;1273;22561;-71
2023/11/12 12:53:29;;;;;;;18.60;5.80;;;;;;;11.44;79.47;97985.32;135858;1266;22551;-72
2023/11/12 12:56:34;;;;;;;19.50;6.30;;;;;;;11.50;78.94;97986.27;135840;1273;22569;-72
2023/11/12 12:59:37;;;;;;;20.80;6.40;;;;;;;11.40;80.34;97982.82;136076;1273;22545;-72
2023/11/12 13:02:41;;;;;;;21.10;6.30;;;;;;;11.44;80.72;97985.30;135961;1273;23889;-72
2023/11/12 13:05:45;;;;;;;20.40;6.70;;;;;;;11.43;80.02;97990.64;135883;1274;22589;-72
2023/11/12 13:08:48;;;;;;;23.70;7.20;;;;;;;11.60;79.68;97991.64;135921;1273;22566;-72
2023/11/12 13:11:51;;;;;;;18.30;5.70;;;;;;;11.69;79.02;97990.92;135937;1274;22668;-72
2023/11/12 13:14:54;;;;;;;19.30;6.20;;;;;;;11.83;79.02;97990.55;135870;1274;23040;-72
2023/11/12 13:17:57;;;;;;;25.00;7.80;;;;;;;11.95;79.33;97989.04;135940;1274;24140;-71
2023/11/12 13:21:00;;;;;;;23.60;8.00;;;;;;;12.07;79.61;97984.41;135952;1273;22649;-72
2023/11/12 13:24:05;;;;;;;21.50;6.80;;;;;;;12.24;78.75;97980.91;135984;1273;22602;-72
2023/11/12 13:27:07;;;;;;;21.20;7.30;;;;;;;12.47;78.65;97978.38;135916;1273;22559;-72
2023/11/12 13:30:10;;;;;;;25.80;8.20;;;;;;;12.48;77.05;97986.95;135917;1273;22553;-72
2023/11/12 13:33:13;;;;;;;20.40;7.50;;;;;;;12.37;77.45;97989.23;135909;1273;22534;-72
2023/11/12 13:36:16;;;;;;;20.10;6.90;;;;;;;12.38;77.56;97991.23;135960;1273;22538;-72
2023/11/12 13:39:18;;;;;;;21.00;7.00;;;;;;;12.28;77.62;97995.56;135900;1273;22548;-72
2023/11/12 13:42:21;;;;;;;22.50;7.00;;;;;;;12.10;78.58;98000.65;135997;1273;22541;-72
2023/11/12 13:45:23;;;;;;;22.10;6.90;;;;;;;12.07;77.68;98005.66;135974;1273;22612;-72
2023/11/12 13:48:26;;;;;;;24.70;9.10;;;;;;;11.84;79.65;98006.41;135932;1273;22550;-72
2023/11/12 13:51:30;;;;;;;23.80;8.60;;;;;;;11.92;79.83;98011.56;135938;1274;23021;-72
2023/11/12 13:54:32;;;;;;;22.70;7.60;;;;;;;12.00;80.08;98013.91;135915;1273;22555;-71
2023/11/12 13:57:35;;;;;;;;;;;;;;;12.04;79.51;98018.30;135931;1274;22581;-71
2023/11/12 14:00:37;;;;;;;22.00;7.90;;;;;;;11.98;78.99;98021.10;135967;1273;22666;-74